sensor_id;sensor_type;location;lat;lon;timestamp;pressure;altitude;pressure_sealevel;temperature;humidity
60427;BME280;46274;47.168;27.604;2022-09-20T00:03:16;99665.31;;;9.87;75.63
60427;BME280;46274;47.168;27.604;2022-09-20T00:09:18;99624.47;;;9.59;76.29
60427;BME280;46274;47.168;27.604;2022-09-20T00:15:19;99674.75;;;9.91;75.92
60427;BME280;46274;47.168;27.604;2022-09-20T00:21:23;99682.59;;;9.86;76.53
60427;BME280;46274;47.168;27.604;2022-09-20T00:27:25;99667.97;;;9.72;76.06
60427;BME280;46274;47.168;27.604;2022-09-20T00:33:27;99673.91;;;9.68;76.17
60427;BME280;46274;47.168;27.604;2022-09-20T00:39:49;99672.91;;;9.69;76.67
60427;BME280;46274;47.168;27.604;2022-09-20T00:45:51;99624.59;;;9.43;76.72
60427;BME280;46274;47.168;27.604;2022-09-20T00:51:56;99686.91;;;9.72;76.54
60427;BME280;46274;47.168;27.604;2022-09-20T00:58:00;99629.88;;;9.36;76.25
60427;BME280;46274;47.168;27.604;2022-09-20T01:04:02;99679.03;;;9.63;76.82
60427;BME280;46274;47.168;27.604;2022-09-20T01:10:04;99614.22;;;9.23;76.59
60427;BME280;46274;47.168;27.604;2022-09-20T01:16:07;99604.75;;;9.04;77.02
60427;BME280;46274;47.168;27.604;2022-09-20T01:22:24;99652.22;;;9.30;76.75
60427;BME280;46274;47.168;27.604;2022-09-20T01:28:28;99652.31;;;9.36;76.43
60427;BME280;46274;47.168;27.604;2022-09-20T01:34:35;99660.97;;;9.32;76.62
60427;BME280;46274;47.168;27.604;2022-09-20T01:41:00;99625.28;;;9.13;76.81
60427;BME280;46274;47.168;27.604;2022-09-20T02:12:54;99659.38;;;9.46;76.35
60427;BME280;46274;47.168;27.604;2022-09-20T02:45:14;99663.34;;;9.35;76.69
60427;BME280;46274;47.168;27.604;2022-09-20T02:51:33;99590.59;;;8.94;76.75
60427;BME280;46274;47.168;27.604;2022-09-20T02:58:00;99667.19;;;9.41;77.25
60427;BME280;46274;47.168;27.604;2022-09-20T03:04:30;99669.53;;;9.44;76.67
60427;BME280;46274;47.168;27.604;2022-09-20T03:10:40;99665.31;;;9.41;76.50
60427;BME280;46274;47.168;27.604;2022-09-20T03:23:21;99671.78;;;9.32;76.92
60427;BME280;46274;47.168;27.604;2022-09-20T03:36:04;99640.78;;;9.20;76.89
60427;BME280;46274;47.168;27.604;2022-09-20T03:55:03;99651.28;;;9.14;77.23
60427;BME280;46274;47.168;27.604;2022-09-20T04:13:59;99684.47;;;9.31;77.36
60427;BME280;46274;47.168;27.604;2022-09-20T04:20:16;99685.50;;;9.30;77.23
60427;BME280;46274;47.168;27.604;2022-09-20T04:26:29;99656.03;;;9.12;77.54
60427;BME280;46274;47.168;27.604;2022-09-20T04:32:43;99668.72;;;9.12;77.63
60427;BME280;46274;47.168;27.604;2022-09-20T04:38:52;99653.53;;;9.03;77.40
60427;BME280;46274;47.168;27.604;2022-09-20T05:10:08;99709.34;;;9.27;77.15
60427;BME280;46274;47.168;27.604;2022-09-20T05:16:28;99700.25;;;9.20;77.51
60427;BME280;46274;47.168;27.604;2022-09-20T05:35:39;99710.88;;;9.29;78.09
60427;BME280;46274;47.168;27.604;2022-09-20T05:41:56;99712.34;;;9.32;77.87
60427;BME280;46274;47.168;27.604;2022-09-20T06:00:58;99683.31;;;9.26;77.51
60427;BME280;46274;47.168;27.604;2022-09-20T06:39:21;99741.78;;;10.04;77.05
60427;BME280;46274;47.168;27.604;2022-09-20T06:45:44;99631.06;;;9.56;76.42
60427;BME280;46274;47.168;27.604;2022-09-20T06:51:46;99747.94;;;10.21;75.68
60427;BME280;46274;47.168;27.604;2022-09-20T06:58:16;99750.81;;;10.42;74.84
60427;BME280;46274;47.168;27.604;2022-09-20T07:04:22;99684.25;;;9.87;74.05
60427;BME280;46274;47.168;27.604;2022-09-20T07:10:32;99713.28;;;10.16;73.75
60427;BME280;46274;47.168;27.604;2022-09-20T07:17:07;99750.22;;;10.32;74.27
60427;BME280;46274;47.168;27.604;2022-09-20T07:23:10;99761.75;;;10.26;73.40
60427;BME280;46274;47.168;27.604;2022-09-20T07:29:19;99713.88;;;10.03;73.60
60427;BME280;46274;47.168;27.604;2022-09-20T07:35:21;99714.19;;;10.09;71.74
60427;BME280;46274;47.168;27.604;2022-09-20T07:41:27;99712.06;;;10.19;72.77
60427;BME280;46274;47.168;27.604;2022-09-20T07:47:36;99686.75;;;10.12;72.70
60427;BME280;46274;47.168;27.604;2022-09-20T07:53:42;99738.50;;;10.55;72.93
60427;BME280;46274;47.168;27.604;2022-09-20T08:00:04;99636.06;;;10.05;72.09
60427;BME280;46274;47.168;27.604;2022-09-20T08:06:09;99748.53;;;10.84;70.96
60427;BME280;46274;47.168;27.604;2022-09-20T08:18:28;99654.44;;;10.63;70.19
60427;BME280;46274;47.168;27.604;2022-09-20T08:24:32;99726.47;;;11.17;69.76
60427;BME280;46274;47.168;27.604;2022-09-20T08:30:36;99634.38;;;10.72;66.80
60427;BME280;46274;47.168;27.604;2022-09-20T08:36:40;99742.13;;;11.51;67.97
60427;BME280;46274;47.168;27.604;2022-09-20T08:42:45;99740.41;;;11.65;67.52
60427;BME280;46274;47.168;27.604;2022-09-20T08:48:56;99701.19;;;11.67;67.20
60427;BME280;46274;47.168;27.604;2022-09-20T08:55:18;99636.06;;;11.67;68.42
60427;BME280;46274;47.168;27.604;2022-09-20T09:02:01;99599.22;;;11.58;65.40
60427;BME280;46274;47.168;27.604;2022-09-20T09:08:42;99729.16;;;12.54;64.77
60427;BME280;46274;47.168;27.604;2022-09-20T09:21:08;99709.34;;;13.29;64.37
60427;BME280;46274;47.168;27.604;2022-09-20T09:33:30;99684.28;;;13.06;60.74
60427;BME280;46274;47.168;27.604;2022-09-20T09:39:34;99605.03;;;12.61;60.21
60427;BME280;46274;47.168;27.604;2022-09-20T09:45:42;99659.19;;;13.10;60.88
60427;BME280;46274;47.168;27.604;2022-09-20T09:58:17;99668.66;;;13.96;58.73
60427;BME280;46274;47.168;27.604;2022-09-20T10:05:03;99657.97;;;14.21;59.12
60427;BME280;46274;47.168;27.604;2022-09-20T10:38:16;99708.22;;;13.85;54.14
60427;BME280;46274;47.168;27.604;2022-09-20T10:44:39;99699.22;;;13.85;54.84
60427;BME280;46274;47.168;27.604;2022-09-20T10:51:15;99710.16;;;14.25;50.89
60427;BME280;46274;47.168;27.604;2022-09-20T10:57:43;99689.00;;;14.60;51.96
60427;BME280;46274;47.168;27.604;2022-09-20T11:10:32;99694.97;;;15.02;50.37
60427;BME280;46274;47.168;27.604;2022-09-20T11:17:11;99679.56;;;14.56;49.56
60427;BME280;46274;47.168;27.604;2022-09-20T11:24:00;99668.25;;;14.19;50.81
60427;BME280;46274;47.168;27.604;2022-09-20T11:30:27;99696.72;;;14.90;51.98
60427;BME280;46274;47.168;27.604;2022-09-20T11:43:21;99592.06;;;14.71;48.66
60427;BME280;46274;47.168;27.604;2022-09-20T11:56:22;99670.16;;;15.23;46.48
60427;BME280;46274;47.168;27.604;2022-09-20T12:09:29;99626.75;;;15.02;46.33
60427;BME280;46274;47.168;27.604;2022-09-20T12:15:50;99591.66;;;14.67;46.55
60427;BME280;46274;47.168;27.604;2022-09-20T12:28:16;99636.00;;;15.46;47.10
60427;BME280;46274;47.168;27.604;2022-09-20T12:40:33;99656.63;;;16.05;44.45
60427;BME280;46274;47.168;27.604;2022-09-20T12:46:41;99647.28;;;15.56;42.97
60427;BME280;46274;47.168;27.604;2022-09-20T12:52:56;99610.28;;;15.60;43.07
60427;BME280;46274;47.168;27.604;2022-09-20T12:59:00;99648.84;;;15.77;41.41
60427;BME280;46274;47.168;27.604;2022-09-20T13:11:53;99687.06;;;15.84;42.46
60427;BME280;46274;47.168;27.604;2022-09-20T13:17:58;99681.56;;;15.90;43.36
60427;BME280;46274;47.168;27.604;2022-09-20T13:24:01;99673.22;;;15.79;43.60
60427;BME280;46274;47.168;27.604;2022-09-20T13:30:20;99572.59;;;15.44;43.41
60427;BME280;46274;47.168;27.604;2022-09-20T13:36:27;99677.00;;;16.09;46.14
60427;BME280;46274;47.168;27.604;2022-09-20T13:42:35;99667.22;;;15.95;43.28
60427;BME280;46274;47.168;27.604;2022-09-20T13:55:31;99687.31;;;16.07;43.44
60427;BME280;46274;47.168;27.604;2022-09-20T14:08:27;99649.69;;;15.78;43.73
60427;BME280;46274;47.168;27.604;2022-09-20T14:14:34;99635.47;;;15.69;44.23
60427;BME280;46274;47.168;27.604;2022-09-20T14:20:40;99680.56;;;16.10;44.21
60427;BME280;46274;47.168;27.604;2022-09-20T14:27:03;99660.75;;;15.51;45.46
60427;BME280;46274;47.168;27.604;2022-09-20T14:33:15;99641.91;;;15.43;45.55
60427;BME280;46274;47.168;27.604;2022-09-20T14:39:27;99691.78;;;15.63;45.17
60427;BME280;46274;47.168;27.604;2022-09-20T14:45:30;99694.75;;;15.55;45.74
60427;BME280;46274;47.168;27.604;2022-09-20T14:51:40;99607.66;;;15.02;44.81
60427;BME280;46274;47.168;27.604;2022-09-20T14:57:50;99656.19;;;15.00;46.04
60427;BME280;46274;47.168;27.604;2022-09-20T15:03:52;99717.88;;;15.46;46.46
60427;BME280;46274;47.168;27.604;2022-09-20T15:09:56;99668.94;;;15.06;47.63
60427;BME280;46274;47.168;27.604;2022-09-20T15:16:14;99698.72;;;15.14;48.82
60427;BME280;46274;47.168;27.604;2022-09-20T15:22:18;99685.84;;;14.63;49.97
60427;BME280;46274;47.168;27.604;2022-09-20T15:28:20;99685.00;;;14.43;51.65
60427;BME280;46274;47.168;27.604;2022-09-20T15:34:23;99738.88;;;14.47;52.21
60427;BME280;46274;47.168;27.604;2022-09-20T15:40:25;99696.69;;;13.83;53.49
60427;BME280;46274;47.168;27.604;2022-09-20T15:46:27;99737.31;;;13.78;55.22
60427;BME280;46274;47.168;27.604;2022-09-20T15:52:34;99752.75;;;13.51;56.11
60427;BME280;46274;47.168;27.604;2022-09-20T15:58:37;99751.22;;;13.35;57.27
60427;BME280;46274;47.168;27.604;2022-09-20T16:04:38;99733.69;;;13.09;57.27
60427;BME280;46274;47.168;27.604;2022-09-20T16:10:41;99696.34;;;12.55;58.85
60427;BME280;46274;47.168;27.604;2022-09-20T16:16:46;99775.75;;;12.79;59.49
60427;BME280;46274;47.168;27.604;2022-09-20T16:22:48;99768.00;;;12.48;60.12
60427;BME280;46274;47.168;27.604;2022-09-20T16:28:49;99762.25;;;12.14;60.69
60427;BME280;46274;47.168;27.604;2022-09-20T16:34:51;99761.03;;;11.81;61.04
60427;BME280;46274;47.168;27.604;2022-09-20T16:40:55;99728.78;;;11.34;61.31
60427;BME280;46274;47.168;27.604;2022-09-20T16:46:58;99768.78;;;11.62;61.36
60427;BME280;46274;47.168;27.604;2022-09-20T16:52:59;99805.28;;;11.45;63.39
60427;BME280;46274;47.168;27.604;2022-09-20T16:59:03;99827.38;;;11.56;63.71
60427;BME280;46274;47.168;27.604;2022-09-20T17:05:05;99791.81;;;11.37;64.87
60427;BME280;46274;47.168;27.604;2022-09-20T17:11:11;99805.66;;;11.42;65.29
60427;BME280;46274;47.168;27.604;2022-09-20T17:17:14;99759.72;;;11.25;65.30
60427;BME280;46274;47.168;27.604;2022-09-20T17:23:16;99785.47;;;11.29;65.71
60427;BME280;46274;47.168;27.604;2022-09-20T17:29:19;99847.47;;;11.62;65.40
60427;BME280;46274;47.168;27.604;2022-09-20T17:35:21;99789.50;;;11.19;65.60
60427;BME280;46274;47.168;27.604;2022-09-20T17:41:24;99829.59;;;11.53;64.76
60427;BME280;46274;47.168;27.604;2022-09-20T17:47:26;99776.59;;;11.21;64.87
60427;BME280;46274;47.168;27.604;2022-09-20T17:53:34;99864.41;;;11.64;65.46
60427;BME280;46274;47.168;27.604;2022-09-20T17:59:36;99796.69;;;11.26;65.18
60427;BME280;46274;47.168;27.604;2022-09-20T18:05:38;99847.09;;;11.50;65.02
60427;BME280;46274;47.168;27.604;2022-09-20T18:11:45;99833.72;;;11.49;65.28
60427;BME280;46274;47.168;27.604;2022-09-20T18:17:49;99870.84;;;11.63;65.74
60427;BME280;46274;47.168;27.604;2022-09-20T18:23:55;99786.69;;;10.97;67.33
60427;BME280;46274;47.168;27.604;2022-09-20T18:29:57;99870.84;;;11.48;66.94
60427;BME280;46274;47.168;27.604;2022-09-20T18:36:04;99874.44;;;11.49;66.72
60427;BME280;46274;47.168;27.604;2022-09-20T18:42:06;99851.78;;;11.42;66.66
60427;BME280;46274;47.168;27.604;2022-09-20T18:48:11;99827.63;;;11.32;66.91
60427;BME280;46274;47.168;27.604;2022-09-20T18:54:13;99753.88;;;10.77;68.01
60427;BME280;46274;47.168;27.604;2022-09-20T19:00:19;99831.13;;;11.26;67.83
60427;BME280;46274;47.168;27.604;2022-09-20T19:06:27;99870.50;;;11.51;67.69
60427;BME280;46274;47.168;27.604;2022-09-20T19:25:38;99822.13;;;11.10;68.42
60427;BME280;46274;47.168;27.604;2022-09-20T19:31:47;99829.78;;;11.07;68.77
60427;BME280;46274;47.168;27.604;2022-09-20T19:37:59;99818.56;;;11.10;68.21
60427;BME280;46274;47.168;27.604;2022-09-20T19:44:34;99887.13;;;11.33;67.73
60427;BME280;46274;47.168;27.604;2022-09-20T19:50:47;99888.31;;;11.16;68.29
60427;BME280;46274;47.168;27.604;2022-09-20T19:56:55;99806.81;;;10.65;68.01
60427;BME280;46274;47.168;27.604;2022-09-20T20:02:57;99868.28;;;10.87;68.87
60427;BME280;46274;47.168;27.604;2022-09-20T20:15:43;99917.31;;;11.16;68.63
60427;BME280;46274;47.168;27.604;2022-09-20T20:21:56;99929.47;;;11.20;68.32
60427;BME280;46274;47.168;27.604;2022-09-20T20:27:59;99906.53;;;11.07;68.73
60427;BME280;46274;47.168;27.604;2022-09-20T20:34:01;99920.19;;;11.14;68.27
60427;BME280;46274;47.168;27.604;2022-09-20T20:40:03;99935.13;;;11.10;69.38
60427;BME280;46274;47.168;27.604;2022-09-20T20:46:10;99883.81;;;10.70;68.65
60427;BME280;46274;47.168;27.604;2022-09-20T20:52:12;99889.72;;;10.74;68.90
60427;BME280;46274;47.168;27.604;2022-09-20T20:58:14;99927.16;;;10.94;69.30
60427;BME280;46274;47.168;27.604;2022-09-20T21:04:16;99931.50;;;11.03;68.68
60427;BME280;46274;47.168;27.604;2022-09-20T21:10:19;99903.50;;;10.87;68.82
60427;BME280;46274;47.168;27.604;2022-09-20T21:16:26;99928.13;;;11.01;69.43
60427;BME280;46274;47.168;27.604;2022-09-20T21:22:29;99926.50;;;10.91;71.44
60427;BME280;46274;47.168;27.604;2022-09-20T21:28:40;99888.16;;;10.57;72.03
60427;BME280;46274;47.168;27.604;2022-09-20T21:34:42;99922.88;;;10.76;72.14
60427;BME280;46274;47.168;27.604;2022-09-20T21:40:44;99890.16;;;10.63;70.81
60427;BME280;46274;47.168;27.604;2022-09-20T21:46:45;99908.75;;;10.66;71.51
60427;BME280;46274;47.168;27.604;2022-09-20T21:52:48;99894.91;;;10.61;70.85
60427;BME280;46274;47.168;27.604;2022-09-20T21:58:51;99923.94;;;10.75;70.70
60427;BME280;46274;47.168;27.604;2022-09-20T22:04:52;99931.09;;;10.68;70.42
60427;BME280;46274;47.168;27.604;2022-09-20T22:10:55;99930.41;;;10.66;70.04
60427;BME280;46274;47.168;27.604;2022-09-20T22:16:57;99889.00;;;10.34;70.54
60427;BME280;46274;47.168;27.604;2022-09-20T22:23:00;99924.69;;;10.61;70.83
60427;BME280;46274;47.168;27.604;2022-09-20T22:29:03;99910.53;;;10.51;70.14
60427;BME280;46274;47.168;27.604;2022-09-20T22:35:05;99933.78;;;10.68;70.11
60427;BME280;46274;47.168;27.604;2022-09-20T22:41:07;99923.38;;;10.57;70.07
60427;BME280;46274;47.168;27.604;2022-09-20T22:47:08;99929.78;;;10.64;70.07
60427;BME280;46274;47.168;27.604;2022-09-20T22:53:10;99881.19;;;10.39;69.91
60427;BME280;46274;47.168;27.604;2022-09-20T22:59:13;99911.88;;;10.55;69.77
60427;BME280;46274;47.168;27.604;2022-09-20T23:05:15;99862.69;;;10.20;69.79
60427;BME280;46274;47.168;27.604;2022-09-20T23:11:19;99927.28;;;10.54;70.54
60427;BME280;46274;47.168;27.604;2022-09-20T23:17:20;99892.22;;;10.38;70.89
60427;BME280;46274;47.168;27.604;2022-09-20T23:23:22;99928.88;;;10.48;71.22
60427;BME280;46274;47.168;27.604;2022-09-20T23:29:24;99902.31;;;10.44;70.55
60427;BME280;46274;47.168;27.604;2022-09-20T23:35:26;99889.97;;;10.41;70.19
60427;BME280;46274;47.168;27.604;2022-09-20T23:41:28;99862.00;;;10.18;70.49
60427;BME280;46274;47.168;27.604;2022-09-20T23:47:30;99880.44;;;10.14;70.94
60427;BME280;46274;47.168;27.604;2022-09-20T23:53:32;99904.59;;;10.24;71.45
60427;BME280;46274;47.168;27.604;2022-09-20T23:59:33;99920.19;;;10.30;72.45
